Time;durP1;ratioP1;P1;durP2;ratioP2;P2;SDS_P1;SDS_P2;PMS_P1;PMS_P2;Temp;Humidity;BMP_temperature;BMP_pressure;BME280_temperature;BME280_humidity;BME280_pressure;Samples;Min_cycle;Max_cycle;Signal;HPM_P1;HPM_P2
2021/07/01 00:00:46;;;;;;;13.40;12.80;;;13.70;99.90;;;;;;5047548;28;20456;-70
2021/07/01 00:03:13;;;;;;;13.30;12.70;;;13.70;99.90;;;;;;5049044;28;20466;-71
2021/07/01 00:05:41;;;;;;;13.50;12.90;;;13.60;99.90;;;;;;5050140;28;20463;-71
2021/07/01 00:08:08;;;;;;;13.30;12.70;;;13.60;99.90;;;;;;5050395;28;20499;-71
2021/07/01 00:10:36;;;;;;;13.00;12.50;;;13.50;99.90;;;;;;5047503;28;20478;-73
2021/07/01 00:13:03;;;;;;;12.87;12.37;;;13.50;99.90;;;;;;5049758;28;20994;-71
2021/07/01 00:15:34;;;;;;;12.87;12.37;;;13.60;99.90;;;;;;5052584;28;20467;-74
2021/07/01 00:18:03;;;;;;;12.73;12.23;;;13.50;99.90;;;;;;5053862;28;20490;-70
2021/07/01 00:20:30;;;;;;;12.70;12.20;;;13.50;99.90;;;;;;5049194;28;20459;-70
2021/07/01 00:22:57;;;;;;;12.90;12.40;;;13.50;99.90;;;;;;5044674;28;20471;-69
2021/07/01 00:25:24;;;;;;;12.57;12.07;;;13.60;99.90;;;;;;5047948;28;20830;-72
2021/07/01 00:27:52;;;;;;;13.30;12.70;;;13.60;99.90;;;;;;5047043;28;20474;-71
2021/07/01 00:30:20;;;;;;;12.67;12.17;;;13.60;99.90;;;;;;5050153;28;20554;-71
2021/07/01 00:32:48;;;;;;;12.67;12.17;;;13.60;99.90;;;;;;5047192;28;20470;-73
2021/07/01 00:35:16;;;;;;;12.93;12.43;;;13.60;99.90;;;;;;5044740;28;20498;-70
2021/07/01 00:37:44;;;;;;;12.93;12.43;;;13.70;99.90;;;;;;5050164;28;20468;-71
2021/07/01 00:40:13;;;;;;;12.87;12.37;;;13.70;99.90;;;;;;5049866;28;20451;-70
2021/07/01 00:42:41;;;;;;;13.07;12.57;;;13.70;99.90;;;;;;5049489;28;20468;-71
2021/07/01 00:45:09;;;;;;;13.03;12.53;;;13.70;99.90;;;;;;5048677;28;20506;-70
2021/07/01 00:47:37;;;;;;;24.23;21.70;;;13.70;99.90;;;;;;5048789;28;20488;-70
2021/07/01 00:50:07;;;;;;;29.50;23.40;;;13.70;99.90;;;;;;5047305;28;20532;-71
2021/07/01 00:52:35;;;;;;;24.43;22.07;;;13.70;99.90;;;;;;5050415;28;20517;-71
2021/07/01 00:55:03;;;;;;;24.20;21.77;;;13.70;99.90;;;;;;5047929;28;20857;-70
2021/07/01 00:57:29;;;;;;;25.07;22.47;;;13.70;99.90;;;;;;5047692;28;20486;-73
2021/07/01 00:59:56;;;;;;;24.70;22.30;;;13.70;99.90;;;;;;5048066;28;20478;-71
2021/07/01 01:02:23;;;;;;;23.83;21.90;;;13.70;99.90;;;;;;5045387;28;20463;-70
2021/07/01 01:04:50;;;;;;;23.60;21.67;;;13.70;99.90;;;;;;5047778;28;20463;-73
2021/07/01 01:07:17;;;;;;;25.70;22.97;;;13.70;99.90;;;;;;5046475;28;20459;-71
2021/07/01 01:09:46;;;;;;;25.13;22.73;;;13.60;99.90;;;;;;5049006;28;20460;-71
2021/07/01 01:12:13;;;;;;;31.47;23.77;;;13.70;99.90;;;;;;5046139;28;21027;-73
2021/07/01 01:14:39;;;;;;;26.07;23.63;;;13.70;99.90;;;;;;5049347;28;20491;-71
2021/07/01 01:17:07;;;;;;;26.67;24.17;;;13.70;99.90;;;;;;5045377;28;20474;-72
2021/07/01 01:19:34;;;;;;;26.90;23.77;;;13.70;99.90;;;;;;5048469;28;20460;-70
2021/07/01 01:22:02;;;;;;;28.20;25.60;;;13.70;99.90;;;;;;5049270;28;20538;-71
2021/07/01 01:24:29;;;;;;;27.00;24.40;;;13.80;99.90;;;;;;5050804;28;20504;-71
2021/07/01 01:26:57;;;;;;;27.67;25.07;;;13.80;99.90;;;;;;5053466;28;20494;-75
2021/07/01 01:29:24;;;;;;;28.90;25.87;;;13.70;99.90;;;;;;5052089;28;21021;-74
2021/07/01 01:31:51;;;;;;;28.63;25.93;;;13.70;99.90;;;;;;5051802;28;20771;-70
2021/07/01 01:34:17;;;;;;;27.93;25.00;;;13.80;99.90;;;;;;5052051;28;20467;-75
2021/07/01 01:36:44;;;;;;;29.57;25.70;;;13.80;99.90;;;;;;5051644;28;20826;-70
2021/07/01 01:39:13;;;;;;;27.30;24.93;;;13.80;99.90;;;;;;5047293;28;20460;-70
2021/07/01 01:41:40;;;;;;;28.07;24.90;;;13.80;99.90;;;;;;5047111;28;20639;-70
2021/07/01 01:44:07;;;;;;;28.17;24.23;;;13.90;99.90;;;;;;5050641;28;21104;-73
2021/07/01 01:46:36;;;;;;;28.70;25.70;;;13.80;99.90;;;;;;5056491;28;20491;-73
2021/07/01 01:49:04;;;;;;;27.87;24.87;;;13.90;99.90;;;;;;5050592;28;20542;-70
2021/07/01 01:51:31;;;;;;;29.40;25.53;;;13.80;99.90;;;;;;5050463;28;20467;-71
2021/07/01 01:53:59;;;;;;;27.77;24.77;;;13.90;99.90;;;;;;5048855;28;20849;-70
2021/07/01 01:56:36;;;;;;;27.33;24.67;;;13.90;99.90;;;;;;5050071;28;20475;-70
2021/07/01 01:59:04;;;;;;;28.73;25.87;;;13.90;99.90;;;;;;5049702;28;20487;-70
2021/07/01 02:01:31;;;;;;;28.27;25.40;;;13.90;99.90;;;;;;5050081;28;21063;-70
2021/07/01 02:03:58;;;;;;;27.50;24.83;;;13.90;99.90;;;;;;5047489;28;20463;-70
2021/07/01 02:06:25;;;;;;;28.37;25.13;;;13.90;99.90;;;;;;5047670;28;20472;-70
2021/07/01 02:08:52;;;;;;;28.70;24.87;;;13.80;99.90;;;;;;5050502;28;20515;-71
2021/07/01 02:11:19;;;;;;;25.07;22.67;;;13.80;99.90;;;;;;5049247;28;20977;-71
2021/07/01 02:13:47;;;;;;;30.30;25.37;;;13.80;99.90;;;;;;5049028;28;20456;-70
2021/07/01 02:16:15;;;;;;;28.80;24.70;;;13.80;99.90;;;;;;5049186;28;20467;-70
2021/07/01 02:18:42;;;;;;;27.97;23.40;;;13.90;99.90;;;;;;5048579;28;20471;-73
2021/07/01 02:21:09;;;;;;;27.70;24.67;;;13.90;99.90;;;;;;5048560;28;20467;-70
2021/07/01 02:23:36;;;;;;;26.30;23.70;;;13.90;99.90;;;;;;5048426;28;20825;-70
2021/07/01 02:26:03;;;;;;;28.40;24.40;;;13.90;99.90;;;;;;5050476;28;20467;-69
2021/07/01 02:28:30;;;;;;;26.40;23.67;;;13.80;99.90;;;;;;5050322;28;21056;-70
2021/07/01 02:30:59;;;;;;;31.27;23.80;;;13.90;99.90;;;;;;5048011;28;20457;-70
2021/07/01 02:33:26;;;;;;;28.37;25.30;;;13.90;99.90;;;;;;5050435;28;20830;-70
2021/07/01 02:35:53;;;;;;;26.37;23.83;;;13.80;99.90;;;;;;5049504;28;20927;-70
2021/07/01 02:38:20;;;;;;;26.30;23.73;;;13.80;99.90;;;;;;5051132;28;21012;-74
2021/07/01 02:40:47;;;;;;;26.73;24.17;;;13.80;99.90;;;;;;5046277;28;20855;-72
2021/07/01 02:43:14;;;;;;;29.57;24.23;;;13.80;99.90;;;;;;5049608;28;20475;-73
2021/07/01 02:45:41;;;;;;;28.00;25.30;;;13.80;99.90;;;;;;5050881;28;20494;-70
2021/07/01 02:48:09;;;;;;;32.43;24.67;;;13.80;99.90;;;;;;5044153;28;20475;-70
2021/07/01 02:50:36;;;;;;;28.67;25.50;;;13.70;99.90;;;;;;5055545;28;20711;-73
2021/07/01 02:53:03;;;;;;;32.27;25.97;;;13.70;99.90;;;;;;5053945;28;20467;-69
2021/07/01 02:55:30;;;;;;;29.13;25.73;;;13.70;99.90;;;;;;5054008;28;20792;-70
2021/07/01 02:57:58;;;;;;;30.60;26.90;;;13.70;99.90;;;;;;5044484;28;20502;-70
2021/07/01 03:00:25;;;;;;;31.43;25.40;;;13.70;99.90;;;;;;5052085;28;21083;-69
2021/07/01 03:02:52;;;;;;;29.37;26.23;;;13.70;99.90;;;;;;5054109;28;20459;-70
2021/07/01 03:05:20;;;;;;;43.27;27.20;;;13.60;99.90;;;;;;5052817;28;20467;-73
2021/07/01 03:07:47;;;;;;;37.77;28.07;;;13.60;99.90;;;;;;5047617;28;20460;-70
2021/07/01 03:10:14;;;;;;;34.70;28.63;;;13.70;99.90;;;;;;5053501;28;21006;-70
2021/07/01 03:12:40;;;;;;;32.43;28.13;;;13.80;99.90;;;;;;5043646;28;20471;-72
2021/07/01 03:15:08;;;;;;;31.50;26.47;;;13.80;99.90;;;;;;5049166;28;21004;-70
2021/07/01 03:17:37;;;;;;;32.70;26.90;;;13.60;99.90;;;;;;5047491;28;20459;-75
2021/07/01 03:20:05;;;;;;;35.63;26.70;;;13.70;99.90;;;;;;5053511;28;20466;-70
2021/07/01 03:22:33;;;;;;;33.77;26.10;;;13.70;99.90;;;;;;5043158;28;20500;-72
2021/07/01 03:25:01;;;;;;;31.23;26.47;;;13.70;99.90;;;;;;5047912;28;20471;-69
2021/07/01 03:27:28;;;;;;;34.07;27.17;;;13.80;99.90;;;;;;5048630;28;20525;-70
2021/07/01 03:29:55;;;;;;;33.93;27.40;;;13.70;99.90;;;;;;5046515;28;20580;-72
2021/07/01 03:32:22;;;;;;;34.90;29.50;;;13.70;99.90;;;;;;5049564;28;20901;-71
2021/07/01 03:34:49;;;;;;;39.07;30.10;;;13.70;99.90;;;;;;5049334;28;20475;-74
2021/07/01 03:37:15;;;;;;;37.80;31.37;;;13.70;99.90;;;;;;5051353;28;20463;-70
2021/07/01 03:39:44;;;;;;;47.03;33.00;;;13.70;99.90;;;;;;5049472;28;20486;-70
2021/07/01 03:42:12;;;;;;;47.30;34.23;;;13.70;99.90;;;;;;5044154;28;20459;-70
2021/07/01 03:44:39;;;;;;;43.67;33.63;;;13.70;99.90;;;;;;5050777;28;20501;-71
2021/07/01 03:47:08;;;;;;;42.90;34.17;;;13.80;99.90;;;;;;5050011;28;20650;-73
2021/07/01 03:49:35;;;;;;;41.77;31.10;;;13.80;99.90;;;;;;5048745;28;20576;-69
2021/07/01 03:52:02;;;;;;;41.33;31.90;;;13.80;99.90;;;;;;5048772;28;20460;-69
2021/07/01 03:54:29;;;;;;;49.37;33.37;;;13.80;99.90;;;;;;5042416;28;20456;-72
2021/07/01 03:56:59;;;;;;;37.50;31.77;;;13.80;99.90;;;;;;5047119;28;20520;-69
2021/07/01 03:59:26;;;;;;;40.67;29.43;;;13.70;99.90;;;;;;5049483;28;20546;-69
2021/07/01 04:01:53;;;;;;;40.20;31.00;;;13.70;99.90;;;;;;5051707;28;20494;-68
2021/07/01 04:04:20;;;;;;;45.07;30.73;;;13.70;99.90;;;;;;5046799;28;20896;-69
2021/07/01 04:06:47;;;;;;;47.03;31.40;;;13.70;99.90;;;;;;5050678;28;20551;-72
2021/07/01 04:09:14;;;;;;;47.53;31.30;;;13.70;99.90;;;;;;5051400;28;20497;-73
2021/07/01 04:11:41;;;;;;;38.37;31.60;;;13.70;99.90;;;;;;5046133;28;20466;-74
2021/07/01 04:14:09;;;;;;;44.63;29.87;;;13.80;99.90;;;;;;5047140;28;20462;-68
2021/07/01 04:16:36;;;;;;;47.27;31.87;;;13.80;99.90;;;;;;5053051;28;20473;-71
2021/07/01 04:19:03;;;;;;;43.17;30.00;;;13.60;99.90;;;;;;5047365;28;20807;-70
2021/07/01 04:21:30;;;;;;;41.03;32.87;;;13.60;99.90;;;;;;5049153;28;20490;-69
2021/07/01 04:23:57;;;;;;;51.13;33.77;;;13.60;99.90;;;;;;5047703;28;20774;-70
2021/07/01 04:26:25;;;;;;;50.37;32.77;;;13.60;99.90;;;;;;5052064;28;20455;-70
2021/07/01 04:28:52;;;;;;;40.57;32.70;;;13.60;99.90;;;;;;5045566;28;20845;-70
2021/07/01 04:31:21;;;;;;;51.10;32.50;;;13.70;99.90;;;;;;5045284;28;20458;-70
2021/07/01 04:33:48;;;;;;;42.80;31.83;;;13.60;99.90;;;;;;5048898;28;20467;-68
2021/07/01 04:36:15;;;;;;;45.80;32.17;;;13.60;99.90;;;;;;5048738;28;20503;-70
2021/07/01 04:38:42;;;;;;;40.90;29.87;;;13.60;99.90;;;;;;5045882;28;20793;-74
2021/07/01 04:41:09;;;;;;;47.50;35.20;;;13.60;99.90;;;;;;5047031;28;20772;-71
2021/07/01 04:43:36;;;;;;;58.97;34.47;;;13.60;99.90;;;;;;5046282;28;20460;-70
2021/07/01 04:46:03;;;;;;;53.20;32.00;;;13.50;99.90;;;;;;5052731;28;20475;-70
2021/07/01 04:48:31;;;;;;;40.90;32.93;;;13.50;99.90;;;;;;5046935;28;20650;-70
2021/07/01 04:50:58;;;;;;;52.07;33.10;;;13.50;99.90;;;;;;5044862;28;21224;-70
2021/07/01 04:53:25;;;;;;;41.90;31.40;;;13.40;99.90;;;;;;5044540;28;21209;-70
2021/07/01 04:55:52;;;;;;;45.20;31.87;;;13.50;99.90;;;;;;5047734;28;20466;-70
2021/07/01 04:58:19;;;;;;;52.27;33.70;;;13.40;99.90;;;;;;5049771;28;20487;-70
2021/07/01 05:00:48;;;;;;;49.27;32.23;;;13.40;99.90;;;;;;5052337;28;20463;-69
2021/07/01 05:03:14;;;;;;;52.60;36.47;;;13.50;99.90;;;;;;5047545;28;20979;-73
2021/07/01 05:05:43;;;;;;;45.30;32.50;;;13.40;99.90;;;;;;5055189;28;20842;-69
2021/07/01 05:08:10;;;;;;;44.50;32.83;;;13.40;99.90;;;;;;5044697;28;20877;-69
2021/07/01 05:10:37;;;;;;;47.17;32.97;;;13.30;99.90;;;;;;5052767;28;20495;-70
2021/07/01 05:13:04;;;;;;;43.50;31.20;;;13.40;99.90;;;;;;5050102;28;20470;-68
2021/07/01 05:15:32;;;;;;;44.27;32.10;;;13.30;99.90;;;;;;5049636;28;20552;-69
2021/07/01 05:17:58;;;;;;;44.27;33.20;;;13.20;99.90;;;;;;5053066;28;20511;-69
2021/07/01 05:20:25;;;;;;;48.77;35.97;;;13.20;99.90;;;;;;5052799;28;20916;-70
2021/07/01 05:22:54;;;;;;;49.90;35.67;;;13.20;99.90;;;;;;5050564;28;20463;-71
2021/07/01 05:25:21;;;;;;;51.50;36.90;;;13.20;99.90;;;;;;5053829;28;20465;-71
2021/07/01 05:27:47;;;;;;;48.63;38.50;;;13.20;99.90;;;;;;5050557;28;20465;-71
2021/07/01 05:30:15;;;;;;;54.73;38.13;;;13.20;99.90;;;;;;5052656;28;20491;-70
2021/07/01 05:32:42;;;;;;;51.07;37.90;;;13.20;99.90;;;;;;5051189;28;20458;-75
2021/07/01 05:35:09;;;;;;;52.77;36.87;;;13.10;99.90;;;;;;5053831;28;20482;-72
2021/07/01 05:37:37;;;;;;;47.00;36.23;;;13.10;99.90;;;;;;5052738;28;20672;-74
2021/07/01 05:40:07;;;;;;;56.73;37.40;;;13.20;99.90;;;;;;5048623;28;20468;-73
2021/07/01 05:42:34;;;;;;;47.87;34.20;;;13.20;99.90;;;;;;5048421;28;20468;-72
2021/07/01 05:45:00;;;;;;;43.37;33.10;;;13.30;99.90;;;;;;5052785;28;20475;-77
2021/07/01 05:47:28;;;;;;;39.90;32.77;;;13.30;99.90;;;;;;5055450;28;20467;-75
2021/07/01 05:49:55;;;;;;;44.83;32.93;;;13.30;99.90;;;;;;5051917;28;20929;-72
2021/07/01 05:52:25;;;;;;;38.17;32.73;;;13.40;99.90;;;;;;5051510;28;20558;-72
2021/07/01 05:54:56;;;;;;;38.73;32.93;;;13.40;99.90;;;;;;5056363;28;20573;-72
2021/07/01 05:57:25;;;;;;;40.50;31.03;;;13.40;99.90;;;;;;5054109;28;20577;-72
2021/07/01 05:59:52;;;;;;;40.77;30.37;;;13.40;99.90;;;;;;5052124;28;20541;-73
2021/07/01 06:02:19;;;;;;;37.23;31.60;;;13.30;99.90;;;;;;5045436;28;20658;-72
2021/07/01 06:04:46;;;;;;;37.53;30.70;;;13.30;99.90;;;;;;5051336;28;20483;-72
2021/07/01 06:07:20;;;;;;;38.47;29.87;;;13.30;99.90;;;;;;5049351;28;20471;-72
2021/07/01 06:09:49;;;;;;;38.93;31.13;;;13.30;99.90;;;;;;5054068;28;20489;-73
2021/07/01 06:12:18;;;;;;;42.77;31.47;;;13.40;99.90;;;;;;5052913;28;20477;-71
2021/07/01 06:14:46;;;;;;;39.17;29.70;;;13.40;99.90;;;;;;5051358;28;20492;-74
2021/07/01 06:17:17;;;;;;;40.23;29.50;;;13.60;99.90;;;;;;5048491;28;20517;-71
2021/07/01 06:19:49;;;;;;;38.37;28.47;;;13.50;99.90;;;;;;5052725;28;20463;-71
2021/07/01 06:22:16;;;;;;;37.40;29.27;;;13.60;99.90;;;;;;5047191;28;20554;-75
2021/07/01 06:24:43;;;;;;;35.63;26.53;;;13.60;99.90;;;;;;5046371;28;20467;-73
2021/07/01 06:27:11;;;;;;;37.80;26.47;;;13.60;99.90;;;;;;5047900;28;20472;-71
2021/07/01 06:29:39;;;;;;;36.43;26.47;;;13.60;99.90;;;;;;5044841;28;20488;-71
2021/07/01 06:32:08;;;;;;;32.43;25.50;;;13.60;99.90;;;;;;5055389;28;20553;-70
2021/07/01 06:34:35;;;;;;;39.07;26.70;;;13.80;99.90;;;;;;5050679;28;20467;-71
2021/07/01 06:37:03;;;;;;;34.60;26.20;;;13.80;99.90;;;;;;5048419;28;20464;-73
2021/07/01 06:39:33;;;;;;;31.83;24.73;;;13.90;99.90;;;;;;5050919;28;20555;-70
2021/07/01 06:42:04;;;;;;;32.43;26.23;;;13.80;99.90;;;;;;5044665;28;20486;-70
2021/07/01 06:44:32;;;;;;;36.53;24.27;;;14.00;99.90;;;;;;5050470;28;21031;-70
2021/07/01 06:46:59;;;;;;;34.30;23.40;;;14.10;99.90;;;;;;5047940;28;20459;-71
2021/07/01 06:49:31;;;;;;;31.40;24.40;;;14.20;99.90;;;;;;5043538;28;20599;-74
2021/07/01 06:52:02;;;;;;;30.30;24.17;;;14.30;99.90;;;;;;5048383;28;20887;-70
2021/07/01 06:54:30;;;;;;;27.53;24.47;;;14.40;99.90;;;;;;5049690;28;20456;-70
2021/07/01 06:56:59;;;;;;;27.10;24.17;;;14.40;99.90;;;;;;5048574;28;21035;-70
2021/07/01 06:59:27;;;;;;;29.23;25.20;;;14.40;99.90;;;;;;5049478;28;20463;-70
2021/07/01 07:01:54;;;;;;;26.73;24.20;;;14.40;99.90;;;;;;5052348;28;20467;-73
2021/07/01 07:04:21;;;;;;;33.43;25.63;;;14.40;99.90;;;;;;5053155;28;20467;-71
2021/07/01 07:06:50;;;;;;;30.33;24.70;;;14.40;99.90;;;;;;5048901;28;21137;-72
2021/07/01 07:09:17;;;;;;;29.60;24.80;;;14.50;99.90;;;;;;5049795;28;20472;-72
2021/07/01 07:11:44;;;;;;;34.03;25.73;;;14.60;99.90;;;;;;5048662;28;20479;-75
2021/07/01 07:14:13;;;;;;;31.70;24.00;;;14.70;99.90;;;;;;5049821;28;20468;-72
2021/07/01 07:16:42;;;;;;;33.03;27.00;;;14.60;99.90;;;;;;5059003;28;20544;-70
2021/07/01 07:19:10;;;;;;;31.13;26.23;;;14.60;99.90;;;;;;5051423;28;20522;-72
2021/07/01 07:21:39;;;;;;;27.93;24.40;;;14.50;99.90;;;;;;5047414;28;20471;-71
2021/07/01 07:24:09;;;;;;;28.40;25.37;;;14.70;99.90;;;;;;5044220;28;20464;-72
2021/07/01 07:26:38;;;;;;;29.57;25.17;;;14.90;99.90;;;;;;5049171;28;20464;-74
2021/07/01 07:29:08;;;;;;;35.67;26.17;;;15.10;99.90;;;;;;5051224;28;20566;-73
2021/07/01 07:31:39;;;;;;;31.80;27.40;;;15.30;99.90;;;;;;5052140;28;20491;-70
2021/07/01 07:34:06;;;;;;;26.93;24.03;;;15.40;99.90;;;;;;5050719;28;20837;-70
2021/07/01 07:36:34;;;;;;;31.97;26.70;;;15.70;99.90;;;;;;5049159;28;20490;-73
2021/07/01 07:39:02;;;;;;;29.63;25.40;;;15.90;99.90;;;;;;5045370;28;20463;-71
2021/07/01 07:41:31;;;;;;;30.80;26.20;;;15.70;99.90;;;;;;5049312;28;20498;-70
2021/07/01 07:43:58;;;;;;;28.57;25.80;;;15.60;99.90;;;;;;5050120;28;20747;-72
2021/07/01 07:46:28;;;;;;;31.37;27.40;;;15.40;99.90;;;;;;5047243;28;20766;-74
2021/07/01 07:48:55;;;;;;;30.53;25.30;;;15.20;99.90;;;;;;5046791;28;21425;-70
2021/07/01 07:51:25;;;;;;;29.50;26.60;;;15.20;99.90;;;;;;5049478;28;20509;-70
2021/07/01 07:53:55;;;;;;;31.83;25.43;;;15.30;99.90;;;;;;5040654;28;20460;-72
2021/07/01 07:56:27;;;;;;;28.03;25.60;;;15.30;99.90;;;;;;5048886;28;20905;-73
2021/07/01 07:58:56;;;;;;;27.87;25.00;;;15.30;99.90;;;;;;5047954;28;20475;-69
2021/07/01 08:01:24;;;;;;;33.33;25.20;;;15.20;99.90;;;;;;5049731;28;20471;-71
2021/07/01 08:03:54;;;;;;;27.50;24.70;;;15.40;99.90;;;;;;5046187;28;20464;-71
2021/07/01 08:06:24;;;;;;;29.17;26.00;;;15.50;99.90;;;;;;5047652;28;20468;-70
2021/07/01 08:08:53;;;;;;;26.70;24.20;;;15.60;99.90;;;;;;5046473;28;20477;-69
2021/07/01 08:11:22;;;;;;;25.50;23.10;;;15.70;99.90;;;;;;5046399;28;20486;-74
2021/07/01 08:13:54;;;;;;;27.00;24.60;;;15.80;99.90;;;;;;5052620;28;20459;-70
2021/07/01 08:16:23;;;;;;;25.90;23.57;;;15.50;99.90;;;;;;5046179;28;20491;-72
2021/07/01 08:18:51;;;;;;;26.60;23.87;;;15.40;99.90;;;;;;5051567;28;20895;-73
2021/07/01 08:21:19;;;;;;;23.80;21.67;;;15.30;99.90;;;;;;5045765;28;20463;-72
2021/07/01 08:23:47;;;;;;;26.17;23.37;;;15.30;99.90;;;;;;5048260;28;20481;-70
2021/07/01 08:26:15;;;;;;;25.00;22.20;;;15.40;99.90;;;;;;5047411;28;20965;-68
2021/07/01 08:28:42;;;;;;;25.73;22.90;;;15.40;99.90;;;;;;5045258;28;20463;-72
2021/07/01 08:31:11;;;;;;;25.27;22.67;;;15.20;99.90;;;;;;5055803;28;21039;-72
2021/07/01 08:33:42;;;;;;;23.63;21.33;;;15.20;99.90;;;;;;5051071;28;20862;-72
2021/07/01 08:36:14;;;;;;;25.03;22.60;;;15.40;99.90;;;;;;5046966;28;20514;-72
2021/07/01 08:38:41;;;;;;;25.53;22.80;;;15.40;99.90;;;;;;5054076;28;20465;-73
2021/07/01 08:41:13;;;;;;;25.93;23.23;;;15.50;99.90;;;;;;5054350;28;20473;-74
2021/07/01 08:43:49;;;;;;;24.90;21.77;;;15.80;99.90;;;;;;5058612;28;20473;-70
2021/07/01 08:46:21;;;;;;;22.70;20.57;;;16.20;99.90;;;;;;5050280;28;20896;-69
2021/07/01 08:48:59;;;;;;;23.97;21.37;;;16.50;99.90;;;;;;5054385;28;20486;-72
2021/07/01 08:51:29;;;;;;;24.03;21.70;;;16.50;99.90;;;;;;5055350;28;20483;-70
2021/07/01 08:54:21;;;;;;;22.43;20.33;;;16.70;99.90;;;;;;5051839;28;20455;-70
2021/07/01 08:56:49;;;;;;;23.70;21.43;;;16.90;99.90;;;;;;5052590;28;21106;-68
2021/07/01 08:59:19;;;;;;;22.43;20.20;;;16.80;99.90;;;;;;5052595;28;20531;-69
2021/07/01 09:01:55;;;;;;;24.03;21.47;;;16.90;99.90;;;;;;5052481;28;20491;-71
2021/07/01 09:04:26;;;;;;;22.37;20.10;;;16.90;99.90;;;;;;5053686;28;20783;-69
2021/07/01 09:07:01;;;;;;;20.23;18.73;;;17.00;99.90;;;;;;5052857;28;20471;-70
2021/07/01 09:09:32;;;;;;;22.10;20.50;;;17.10;99.90;;;;;;5053312;28;20458;-70
2021/07/01 09:12:02;;;;;;;27.33;20.10;;;17.10;99.90;;;;;;5050847;28;20504;-73
2021/07/01 09:14:30;;;;;;;22.80;20.50;;;17.40;99.90;;;;;;5053190;28;20812;-70
2021/07/01 09:16:56;;;;;;;23.73;21.47;;;17.40;99.90;;;;;;5049580;28;20466;-70
2021/07/01 09:19:25;;;;;;;25.17;21.93;;;17.30;99.90;;;;;;5052618;28;20462;-71
2021/07/01 09:21:52;;;;;;;22.80;20.30;;;16.90;99.90;;;;;;5053142;28;20465;-70
2021/07/01 09:24:20;;;;;;;21.90;20.07;;;16.90;99.90;;;;;;5051787;28;20464;-71
2021/07/01 09:26:48;;;;;;;22.07;20.30;;;16.80;99.90;;;;;;5051932;28;20459;-70
2021/07/01 09:29:17;;;;;;;22.33;20.20;;;16.40;99.90;;;;;;5048914;28;20483;-69
2021/07/01 09:31:44;;;;;;;23.37;21.27;;;16.40;99.90;;;;;;5057506;28;20489;-72
2021/07/01 09:34:11;;;;;;;23.60;21.20;;;16.20;99.90;;;;;;5048891;28;20478;-70
2021/07/01 09:36:40;;;;;;;23.30;21.50;;;16.20;99.90;;;;;;5048408;28;20460;-71
2021/07/01 09:39:07;;;;;;;24.07;21.70;;;16.30;99.90;;;;;;5051184;28;20463;-71
2021/07/01 09:41:35;;;;;;;25.53;21.63;;;16.60;99.90;;;;;;5055755;28;20554;-69
2021/07/01 09:44:02;;;;;;;21.77;19.90;;;16.80;99.90;;;;;;5048947;28;20919;-70
2021/07/01 09:46:31;;;;;;;41.47;22.07;;;17.00;99.90;;;;;;5057539;28;20459;-72
2021/07/01 09:49:00;;;;;;;21.67;19.80;;;17.20;99.90;;;;;;5049618;28;20478;-70
2021/07/01 09:51:29;;;;;;;22.90;20.77;;;17.00;99.90;;;;;;5047435;28;20598;-70
2021/07/01 09:53:57;;;;;;;22.20;20.60;;;17.00;99.90;;;;;;5044321;28;20547;-73
2021/07/01 09:56:41;;;;;;;22.23;20.13;;;17.00;99.90;;;;;;5050066;28;20463;-70
2021/07/01 09:59:14;;;;;;;23.03;20.63;;;17.00;99.90;;;;;;5045825;28;20490;-70
2021/07/01 10:01:42;;;;;;;24.67;22.17;;;17.10;99.90;;;;;;5051833;28;20486;-73
2021/07/01 10:04:08;;;;;;;22.70;20.63;;;17.00;99.90;;;;;;5048376;28;20463;-73
2021/07/01 10:06:36;;;;;;;24.27;21.97;;;17.00;99.90;;;;;;5050796;28;20520;-72
2021/07/01 10:09:07;;;;;;;23.37;21.17;;;17.00;99.90;;;;;;5051307;28;20469;-70
2021/07/01 10:11:36;;;;;;;23.27;21.30;;;17.00;99.90;;;;;;5050657;28;20523;-70
2021/07/01 10:14:05;;;;;;;25.53;22.80;;;16.90;99.90;;;;;;5050853;28;20457;-69
2021/07/01 10:16:34;;;;;;;26.33;23.10;;;16.60;99.90;;;;;;5052327;28;20462;-70
2021/07/01 10:19:03;;;;;;;23.33;21.00;;;16.40;99.90;;;;;;5046389;28;20546;-72
2021/07/01 10:21:31;;;;;;;22.47;20.57;;;16.50;99.90;;;;;;5049824;28;20463;-70
2021/07/01 10:24:14;;;;;;;22.53;20.43;;;16.60;99.90;;;;;;5048280;28;20985;-70
2021/07/01 10:26:44;;;;;;;23.27;21.50;;;16.70;99.90;;;;;;5047607;28;20464;-71
2021/07/01 10:29:11;;;;;;;22.60;20.90;;;16.70;99.90;;;;;;5053637;28;20464;-73
2021/07/01 10:31:48;;;;;;;22.70;20.90;;;16.70;99.90;;;;;;5053231;28;20582;-71
2021/07/01 10:34:15;;;;;;;22.63;20.70;;;16.90;99.90;;;;;;5053792;28;20464;-72
2021/07/01 10:36:42;;;;;;;23.00;21.03;;;17.00;99.90;;;;;;5048661;28;20471;-71
2021/07/01 10:39:10;;;;;;;26.70;23.10;;;16.80;99.90;;;;;;5049511;28;20452;-73
2021/07/01 10:41:41;;;;;;;24.70;22.37;;;16.80;99.90;;;;;;5051210;28;20469;-70
2021/07/01 10:44:21;;;;;;;23.30;20.80;;;16.70;99.90;;;;;;5045164;28;20516;-71
2021/07/01 10:46:48;;;;;;;23.13;20.67;;;16.90;99.90;;;;;;5048999;28;20500;-70
2021/07/01 10:49:16;;;;;;;23.53;21.37;;;17.00;99.90;;;;;;5051174;28;20960;-71
2021/07/01 10:51:54;;;;;;;21.93;19.83;;;17.10;99.90;;;;;;5047320;28;20583;-71
2021/07/01 10:54:21;;;;;;;22.13;20.00;;;16.90;99.90;;;;;;5048775;28;20554;-71
2021/07/01 10:56:54;;;;;;;24.93;21.20;;;16.90;99.90;;;;;;5050842;28;20459;-71
2021/07/01 10:59:21;;;;;;;23.23;20.97;;;16.90;99.90;;;;;;5048095;28;20873;-70
2021/07/01 11:01:54;;;;;;;22.63;20.33;;;16.90;99.90;;;;;;5051686;28;20489;-73
2021/07/01 11:04:22;;;;;;;22.30;20.37;;;17.00;99.90;;;;;;5052327;28;20459;-71
2021/07/01 11:06:58;;;;;;;22.20;20.20;;;16.80;99.90;;;;;;5056766;28;20616;-70
2021/07/01 11:09:25;;;;;;;21.37;19.47;;;16.80;99.90;;;;;;5045637;28;20470;-74
2021/07/01 11:12:03;;;;;;;21.53;19.67;;;16.90;99.90;;;;;;5050568;28;20493;-70
2021/07/01 11:14:40;;;;;;;22.20;20.37;;;16.90;99.90;;;;;;5051318;28;20461;-70
2021/07/01 11:17:08;;;;;;;21.23;19.23;;;16.90;99.90;;;;;;5046423;28;20495;-71
2021/07/01 11:19:41;;;;;;;23.50;21.40;;;17.10;99.90;;;;;;5055853;28;20550;-75
2021/07/01 11:22:08;;;;;;;22.17;20.57;;;17.10;99.90;;;;;;5042923;28;20707;-71
2021/07/01 11:24:40;;;;;;;22.37;20.63;;;17.00;99.90;;;;;;5054411;28;20902;-71
2021/07/01 11:27:09;;;;;;;25.10;21.97;;;16.70;99.90;;;;;;5042480;28;20489;-72
2021/07/01 11:29:38;;;;;;;23.97;21.50;;;16.80;99.90;;;;;;5048340;28;20884;-70
2021/07/01 11:32:19;;;;;;;23.10;21.00;;;17.00;99.90;;;;;;5052768;28;21078;-70
2021/07/01 11:34:48;;;;;;;24.33;21.97;;;17.20;99.90;;;;;;5054721;28;20467;-74
2021/07/01 11:37:17;;;;;;;24.50;22.67;;;17.00;99.90;;;;;;5047517;28;20475;-71
2021/07/01 11:39:44;;;;;;;23.23;21.50;;;17.10;99.90;;;;;;5048174;28;20466;-70
2021/07/01 11:42:13;;;;;;;25.07;22.90;;;16.90;99.90;;;;;;5050104;28;20492;-70
2021/07/01 11:44:40;;;;;;;24.40;22.53;;;16.80;99.90;;;;;;5051575;28;20484;-71
2021/07/01 11:47:09;;;;;;;32.43;23.63;;;16.90;99.90;;;;;;5054340;28;20463;-71
2021/07/01 11:49:38;;;;;;;25.40;22.90;;;16.90;99.90;;;;;;5048350;28;21195;-71
2021/07/01 11:52:05;;;;;;;25.00;22.50;;;17.00;99.90;;;;;;5059207;28;21041;-72
2021/07/01 11:54:33;;;;;;;25.93;23.37;;;17.10;99.90;;;;;;5049287;28;20494;-70
2021/07/01 11:57:00;;;;;;;25.80;23.30;;;17.20;99.90;;;;;;5046635;28;20462;-74
2021/07/01 11:59:30;;;;;;;23.23;21.33;;;17.20;99.90;;;;;;5049744;28;20780;-71
2021/07/01 12:01:58;;;;;;;26.00;23.70;;;17.30;99.90;;;;;;5054019;28;20468;-70
2021/07/01 12:04:30;;;;;;;24.60;22.57;;;17.00;99.90;;;;;;5041622;28;21137;-71
2021/07/01 12:07:08;;;;;;;23.87;21.90;;;16.70;99.90;;;;;;5049075;28;20455;-71
2021/07/01 12:09:38;;;;;;;24.60;22.70;;;16.50;99.90;;;;;;5048811;28;21021;-71
2021/07/01 12:12:13;;;;;;;24.23;22.33;;;16.30;99.90;;;;;;5042636;28;20492;-71
2021/07/01 12:14:43;;;;;;;25.50;23.50;;;16.50;99.90;;;;;;5042005;28;20475;-71
2021/07/01 12:17:10;;;;;;;24.43;22.30;;;16.50;99.90;;;;;;5054053;28;20483;-71
2021/07/01 12:20:01;;;;;;;24.53;22.43;;;16.60;99.90;;;;;;5050384;28;20562;-74
2021/07/01 12:22:48;;;;;;;25.70;23.50;;;16.80;99.90;;;;;;5045103;28;20460;-70
2021/07/01 12:25:47;;;;;;;25.80;23.40;;;16.60;99.90;;;;;;5049541;28;20462;-70
2021/07/01 12:28:17;;;;;;;25.77;23.50;;;16.40;99.90;;;;;;5052381;28;20464;-71
2021/07/01 12:30:57;;;;;;;25.07;22.57;;;16.00;99.90;;;;;;5048166;28;20488;-71
2021/07/01 12:33:31;;;;;;;27.20;24.50;;;15.90;99.90;;;;;;5049928;28;20573;-74
2021/07/01 12:36:07;;;;;;;24.67;22.77;;;15.80;99.90;;;;;;5046618;28;20559;-73